createdAt,value
2019-05-25T00:03:27.087Z,100903.00
2019-05-25T00:08:31.585Z,100900.00
2019-05-25T00:13:36.011Z,100892.00
2019-05-25T00:18:40.455Z,100904.00
2019-05-25T00:23:44.887Z,100898.00
2019-05-25T00:28:49.463Z,100906.00
2019-05-25T00:33:53.915Z,100898.00
2019-05-25T00:38:58.504Z,100902.00
2019-05-25T00:44:02.953Z,100902.00
2019-05-25T00:49:07.462Z,100894.00
2019-05-25T00:54:25.408Z,100896.00
2019-05-25T00:59:18.098Z,100899.00
2019-05-25T01:04:22.592Z,100898.00
2019-05-25T01:09:27.042Z,100894.00
2019-05-25T01:14:31.561Z,100907.00
2019-05-25T01:19:36.089Z,100900.00
2019-05-25T01:24:44.228Z,100898.00
2019-05-25T01:29:46.731Z,100906.00
2019-05-25T01:34:51.179Z,100898.00
2019-05-25T01:39:55.638Z,100894.00
2019-05-25T01:45:00.051Z,100898.00
2019-05-25T01:50:05.697Z,100915.00
2019-05-25T01:55:10.343Z,100921.00
2019-05-25T02:00:15.597Z,100919.00
2019-05-25T02:05:20.174Z,100913.00
2019-05-25T02:10:24.732Z,100909.00
2019-05-25T02:15:29.184Z,100914.00
2019-05-25T02:20:33.696Z,100916.00
2019-05-25T02:25:38.228Z,100916.00
2019-05-25T02:30:42.645Z,100925.00
2019-05-25T02:35:47.313Z,100922.00
2019-05-25T02:40:51.741Z,100937.00
2019-05-25T02:45:56.299Z,100932.00
2019-05-25T02:51:00.823Z,100936.00
2019-05-25T02:56:05.516Z,100940.00
2019-05-25T03:01:10.050Z,100945.00
2019-05-25T03:06:15.415Z,100945.00
2019-05-25T03:11:19.996Z,100930.00
2019-05-25T03:16:24.483Z,100944.00
2019-05-25T03:21:29.074Z,100944.00
2019-05-25T03:26:33.508Z,100949.00
2019-05-25T03:31:37.943Z,100961.00
2019-05-25T03:36:42.447Z,100958.00
2019-05-25T03:41:46.899Z,100948.00
2019-05-25T03:46:51.422Z,100952.00
2019-05-25T03:51:55.861Z,100956.00
2019-05-25T03:57:00.364Z,100953.00
2019-05-25T04:02:04.947Z,100957.00
2019-05-25T04:07:09.478Z,100950.00
2019-05-25T04:12:14.057Z,100961.00
2019-05-25T04:17:18.496Z,100969.00
2019-05-25T04:22:22.912Z,100956.00
2019-05-25T04:27:27.362Z,100964.00
2019-05-25T04:32:31.801Z,100960.00
2019-05-25T04:37:36.385Z,100969.00
2019-05-25T04:42:40.924Z,100959.00
2019-05-25T04:47:45.363Z,100974.00
2019-05-25T04:52:49.950Z,100970.00
2019-05-25T04:57:54.440Z,100978.00
2019-05-25T05:02:58.873Z,100978.00
2019-05-25T05:08:03.310Z,100979.00
2019-05-25T05:13:07.915Z,100980.00
2019-05-25T05:18:12.369Z,100964.00
2019-05-25T05:23:16.933Z,100964.00
2019-05-25T05:28:21.456Z,100970.00
2019-05-25T05:33:25.965Z,100976.00
2019-05-25T05:38:32.340Z,100977.00
2019-05-25T05:43:39.858Z,100988.00
2019-05-25T05:48:45.903Z,100995.00
2019-05-25T05:53:54.482Z,100987.00
2019-05-25T05:58:58.934Z,101001.00
2019-05-25T06:04:03.376Z,100997.00
2019-05-25T06:09:08.672Z,100998.00
2019-05-25T06:14:13.193Z,100998.00
2019-05-25T06:19:17.765Z,101013.00
2019-05-25T06:24:22.202Z,101002.00
2019-05-25T06:29:26.638Z,101007.00
2019-05-25T06:34:31.161Z,101006.00
2019-05-25T06:39:35.594Z,101014.00
2019-05-25T06:44:40.119Z,101016.00
2019-05-25T06:49:44.624Z,101015.00
2019-05-25T06:54:49.150Z,101015.00
2019-05-25T06:59:53.728Z,101010.00
2019-05-25T07:04:58.335Z,101008.00
2019-05-25T07:10:04.348Z,101006.00
2019-05-25T07:15:11.020Z,101012.00
2019-05-25T07:20:15.871Z,101008.00
2019-05-25T07:25:22.350Z,101016.00
2019-05-25T07:30:27.091Z,101027.00
2019-05-25T07:35:31.526Z,101026.00
2019-05-25T07:40:35.951Z,101026.00
2019-05-25T07:45:40.823Z,101031.00
2019-05-25T07:50:45.330Z,101044.00
2019-05-25T07:55:49.763Z,101049.00
2019-05-25T08:00:54.354Z,101050.00
2019-05-25T08:05:58.893Z,101063.00
2019-05-25T08:11:03.356Z,101070.00
2019-05-25T08:16:07.891Z,101062.00
2019-05-25T08:21:12.305Z,101066.00
2019-05-25T08:26:16.741Z,101071.00
2019-05-25T08:31:21.245Z,101070.00
2019-05-25T08:36:25.675Z,101059.00
2019-05-25T08:41:30.174Z,101074.00
2019-05-25T08:46:34.785Z,101085.00
2019-05-25T08:51:39.257Z,101075.00
2019-05-25T08:56:43.928Z,101092.00
2019-05-25T09:01:48.580Z,101084.00
2019-05-25T09:06:53.314Z,101088.00
2019-05-25T09:11:57.818Z,101094.00
2019-05-25T09:17:02.250Z,101091.00
2019-05-25T09:22:06.753Z,101101.00
2019-05-25T09:27:11.190Z,101102.00
2019-05-25T09:32:15.610Z,101091.00
2019-05-25T09:37:20.209Z,101088.00
2019-05-25T09:42:24.795Z,101078.00
2019-05-25T09:47:29.378Z,101096.00
2019-05-25T09:52:34.756Z,101092.00
2019-05-25T09:57:41.536Z,101093.00
2019-05-25T10:02:45.699Z,101099.00
2019-05-25T10:07:50.126Z,101101.00
2019-05-25T10:12:54.641Z,101091.00
2019-05-25T10:17:59.209Z,101085.00
2019-05-25T10:23:03.800Z,101094.00
2019-05-25T10:28:08.250Z,101087.00
2019-05-25T10:33:12.693Z,101089.00
2019-05-25T10:38:17.140Z,101100.00
2019-05-25T10:43:21.795Z,101094.00
2019-05-25T10:48:26.257Z,101082.00
2019-05-25T10:53:30.849Z,101079.00
2019-05-25T10:58:35.381Z,101081.00
2019-05-25T11:03:39.817Z,101069.00
2019-05-25T11:08:44.396Z,101069.00
2019-05-25T11:13:48.986Z,101063.00
2019-05-25T11:18:53.534Z,101073.00
2019-05-25T11:23:57.957Z,101078.00
2019-05-25T11:29:03.423Z,101082.00
2019-05-25T11:34:08.001Z,101081.00
2019-05-25T11:39:12.560Z,101090.00
2019-05-25T11:44:16.991Z,101101.00
2019-05-25T11:49:22.706Z,101077.00
2019-05-25T11:54:27.653Z,101093.00
2019-05-25T11:59:32.170Z,101091.00
2019-05-25T12:04:36.760Z,101087.00
2019-05-25T12:09:41.220Z,101103.00
2019-05-25T12:14:45.654Z,101101.00
2019-05-25T12:19:50.088Z,101096.00
2019-05-25T12:24:54.594Z,101110.00
2019-05-25T12:29:59.126Z,101111.00
2019-05-25T12:35:04.898Z,101100.00
2019-05-25T12:40:10.181Z,101094.00
2019-05-25T12:45:14.866Z,101105.00
2019-05-25T12:50:19.741Z,101107.00
2019-05-25T12:55:24.195Z,101103.00
2019-05-25T13:00:31.484Z,101106.00
2019-05-25T13:05:35.924Z,101112.00
2019-05-25T13:10:40.471Z,101119.00
2019-05-25T13:15:44.978Z,101105.00
2019-05-25T13:20:49.408Z,101127.00
2019-05-25T13:25:53.928Z,101132.00
2019-05-25T13:31:10.701Z,101142.00
2019-05-25T13:36:04.684Z,101134.00
2019-05-25T13:41:09.260Z,101140.00
2019-05-25T13:46:13.709Z,101146.00
2019-05-25T13:51:18.320Z,101150.00
2019-05-25T13:56:22.762Z,101157.00
2019-05-25T14:01:28.705Z,101145.00
2019-05-25T14:06:33.389Z,101145.00
2019-05-25T14:11:38.858Z,101155.00
2019-05-25T14:16:46.497Z,101153.00
2019-05-25T14:21:51.037Z,101147.00
2019-05-25T14:26:55.581Z,101143.00
2019-05-25T14:32:00.876Z,101151.00
2019-05-25T14:37:05.374Z,101144.00
2019-05-25T14:42:09.904Z,101158.00
2019-05-25T14:47:14.422Z,101161.00
2019-05-25T14:52:18.979Z,101160.00
2019-05-25T14:57:23.557Z,101163.00
2019-05-25T15:02:28.148Z,101157.00
2019-05-25T15:07:32.666Z,101144.00
2019-05-25T15:12:37.256Z,101150.00
2019-05-25T15:17:43.255Z,101138.00
2019-05-25T15:22:48.140Z,101129.00
2019-05-25T15:27:52.692Z,101139.00
2019-05-25T15:32:57.220Z,101143.00
2019-05-25T15:38:02.113Z,101145.00
2019-05-25T15:43:06.962Z,101147.00
2019-05-25T15:48:11.814Z,101141.00
2019-05-25T15:53:17.100Z,101152.00
2019-05-25T15:58:21.772Z,101157.00
2019-05-25T16:03:27.803Z,101155.00
2019-05-25T16:08:32.523Z,101151.00
2019-05-25T16:13:37.350Z,101160.00
2019-05-25T16:18:41.921Z,101168.00
2019-05-25T16:23:46.598Z,101152.00
2019-05-25T16:28:51.782Z,101170.00
2019-05-25T16:33:56.285Z,101156.00
2019-05-25T16:39:00.736Z,101162.00
2019-05-25T16:44:05.319Z,101164.00
2019-05-25T16:49:11.877Z,101155.00
2019-05-25T16:54:16.537Z,101152.00
2019-05-25T16:59:21.050Z,101149.00
2019-05-25T17:04:25.488Z,101148.00
2019-05-25T17:09:29.925Z,101155.00
2019-05-25T17:14:34.565Z,101151.00
2019-05-25T17:19:39.066Z,101154.00
2019-05-25T17:24:43.558Z,101146.00
2019-05-25T17:29:48.417Z,101141.00
2019-05-25T17:34:53.047Z,101141.00
2019-05-25T17:39:57.492Z,101135.00
2019-05-25T17:45:02.082Z,101135.00
2019-05-25T17:50:08.403Z,101129.00
2019-05-25T17:55:13.189Z,101124.00
2019-05-25T18:00:40.077Z,101132.00
2019-05-25T18:05:54.030Z,101131.00
2019-05-25T18:10:58.714Z,101142.00
2019-05-25T18:16:03.444Z,101141.00
2019-05-25T18:21:08.183Z,101146.00
2019-05-25T18:26:16.671Z,101144.00
2019-05-25T18:31:21.338Z,101143.00
2019-05-25T18:36:26.061Z,101145.00
2019-05-25T18:41:30.800Z,101137.00
2019-05-25T18:46:37.257Z,101135.00
2019-05-25T18:51:41.859Z,101132.00
2019-05-25T18:56:46.504Z,101136.00
2019-05-25T19:01:51.179Z,101142.00
2019-05-25T19:06:55.900Z,101145.00
2019-05-25T19:12:00.433Z,101148.00
2019-05-25T19:17:05.691Z,101145.00
2019-05-25T19:22:10.276Z,101143.00
2019-05-25T19:27:15.166Z,101141.00
2019-05-25T19:32:19.729Z,101142.00
2019-05-25T19:37:24.369Z,101142.00
2019-05-25T19:42:28.802Z,101137.00
2019-05-25T19:47:34.261Z,101146.00
2019-05-25T19:52:39.081Z,101139.00
2019-05-25T19:57:45.458Z,101141.00
2019-05-25T20:02:50.066Z,101144.00
2019-05-25T20:07:54.753Z,101153.00
2019-05-25T20:12:59.436Z,101143.00
2019-05-25T20:18:04.106Z,101150.00
2019-05-25T20:23:08.813Z,101138.00
2019-05-25T20:28:15.064Z,101131.00
2019-05-25T20:33:27.633Z,101127.00
2019-05-25T20:38:29.306Z,101133.00
2019-05-25T20:43:33.987Z,101126.00
2019-05-25T20:48:41.675Z,101122.00
2019-05-25T20:53:46.226Z,101120.00
2019-05-25T20:58:52.465Z,101128.00
2019-05-25T21:03:57.106Z,101121.00
2019-05-25T21:09:05.625Z,101123.00
2019-05-25T21:14:11.832Z,101118.00
2019-05-25T21:19:16.456Z,101110.00
2019-05-25T21:24:24.001Z,101118.00
2019-05-25T21:29:31.511Z,101120.00
2019-05-25T21:34:37.857Z,101131.00
2019-05-25T21:39:45.794Z,101136.00
2019-05-25T21:44:50.902Z,101127.00
2019-05-25T21:49:57.009Z,101121.00
2019-05-25T21:55:01.455Z,101114.00
2019-05-25T22:00:13.083Z,101112.00
2019-05-25T22:05:18.523Z,101109.00
2019-05-25T22:10:23.415Z,101104.00
2019-05-25T22:15:28.233Z,101107.00
2019-05-25T22:20:33.380Z,101091.00
2019-05-25T22:25:39.538Z,101082.00
2019-05-25T22:30:45.103Z,101085.00
2019-05-25T22:35:50.520Z,101090.00
2019-05-25T22:40:55.615Z,101074.00
2019-05-25T22:46:00.128Z,101073.00
2019-05-25T22:51:04.833Z,101085.00
2019-05-25T22:56:09.316Z,101061.00
2019-05-25T23:01:13.955Z,101067.00
2019-05-25T23:06:18.519Z,101060.00
2019-05-25T23:11:23.042Z,101051.00
2019-05-25T23:16:27.505Z,101046.00
2019-05-25T23:21:32.074Z,101037.00
2019-05-25T23:26:36.682Z,101036.00
2019-05-25T23:31:41.208Z,101027.00
2019-05-25T23:36:45.881Z,101021.00
2019-05-25T23:41:50.319Z,101011.00
2019-05-25T23:46:54.815Z,101010.00
2019-05-25T23:51:59.331Z,101009.00
2019-05-25T23:57:04.446Z,100988.00
